Terminal Aerodrome Forecast
Issued by NWS

Home | Current Version | Previous Version | Text Only | Print | Product List | Glossary On
Versions: 1 2 3 4 5 6 7 8 9 10 11 12 13 14
000
FTUS43 KDMX 092338
TAFFOD
TAF
KFOD 092338Z 1000/1024 29003KT P6SM OVC080
     FM101500 10005KT 3SM -SN OVC035
     FM101800 12011KT 1SM -SN OVC009=

USA.gov is the U.S. government's official web portal to all federal, state and local government web resources and services.